Skip Navigation Links Skip Navigation Links

Current Weather

Dewar Lakes, Nunavut

For information only: do not use for flight planning or navigation.
Latest weather
Observation time Friday, May 25, 2018 8:00 AM EDT
Local time Friday, May 25, 2018 8:37 AM EDT
Flight conditions Low Instrument Meteorological Conditions
Winds
Wind speed calm
Visibility 0 mi.
Present weather SM
Sky condition
Ceiling 2,100 ft. overcast
Cloud layer overcast 2,100 ft.
Temperature 18°F
Dewpoint 14°F
Altimeter 29.74 in.Hg
Derived measurements
Relative humidity 85%
Wind chill 18°F
Density altitude -2085 ft.
Remarks
Fully automated report.
METAR CWUW 251200Z AUTO 00000KT ////SM //// OVC021 M08/M10 A2974

Settings

Location code

InnerDrive.Weather 4.0.6615.0 Release CLR 4.0.30319.42000
Copyright ©2018 Inner Drive Technology. All rights reserved. Portions Copyright ©1986-2018 David Braverman.

Find weather

Site navigation


Skip Navigation Links

Place info

Page info

PayPal - The safer, easier way to pay online!

Return home.

Copyright ©2018 Inner Drive Technology. Purveyors of fine, hand-crafted computer software. Page printed 2018-05-25T12:37:50 UTC.